Time;durP1;ratioP1;P1;durP2;ratioP2;P2;SDS_P1;SDS_P2;PMS_P1;PMS_P2;Temp;Humidity;BMP_temperature;BMP_pressure;BME280_temperature;BME280_humidity;BME280_pressure;Samples;Min_cycle;Max_cycle;Signal;HPM_P1;HPM_P2
2023/07/10 00:01:01;;;;;;;16.90;12.82;;;18.30;99.90;;;;;;4992268;28;20089;-73
2023/07/10 00:03:28;;;;;;;17.70;12.77;;;18.40;99.90;;;;;;4990810;28;20046;-73
2023/07/10 00:05:56;;;;;;;19.20;12.27;;;18.20;99.90;;;;;;4984608;28;20622;-75
2023/07/10 00:08:23;;;;;;;16.88;12.13;;;18.10;99.90;;;;;;4982179;28;20049;-73
2023/07/10 00:10:50;;;;;;;16.73;11.68;;;18.20;99.90;;;;;;4989734;28;20877;-75
2023/07/10 00:13:21;;;;;;;17.45;12.18;;;18.10;99.90;;;;;;4970762;28;20528;-75
2023/07/10 00:15:49;;;;;;;17.45;10.52;;;17.90;99.90;;;;;;4987479;28;20049;-75
2023/07/10 00:18:19;;;;;;;19.10;12.35;;;17.80;99.90;;;;;;4992872;28;20057;-75
2023/07/10 00:20:46;;;;;;;15.60;11.82;;;17.90;99.90;;;;;;4992126;28;20049;-75
2023/07/10 00:23:14;;;;;;;23.73;12.68;;;17.90;99.90;;;;;;4995373;28;20072;-74
2023/07/10 00:25:41;;;;;;;16.20;12.75;;;17.90;99.90;;;;;;4989253;28;20037;-75
2023/07/10 00:28:20;;;;;;;23.15;12.80;;;18.00;99.90;;;;;;4992974;28;20700;-75
2023/07/10 00:30:49;;;;;;;18.65;12.05;;;18.10;99.90;;;;;;4992445;28;20045;-73
2023/07/10 00:33:19;;;;;;;20.00;12.52;;;18.20;99.90;;;;;;4991180;28;20092;-74
2023/07/10 00:35:46;;;;;;;16.13;11.65;;;18.30;99.90;;;;;;4991255;28;20042;-74
2023/07/10 00:38:17;;;;;;;18.15;12.55;;;18.10;99.90;;;;;;4992234;28;20542;-75
2023/07/10 00:40:46;;;;;;;16.33;12.65;;;18.20;99.90;;;;;;4990613;28;20113;-74
2023/07/10 00:43:24;;;;;;;14.63;11.50;;;18.10;99.90;;;;;;4992981;28;20038;-75
2023/07/10 00:45:52;;;;;;;20.50;13.80;;;18.20;99.90;;;;;;4988102;28;20042;-75
2023/07/10 00:48:40;;;;;;;17.40;14.00;;;18.10;99.90;;;;;;4988630;28;20124;-76
2023/07/10 00:51:22;;;;;;;27.38;12.93;;;18.00;99.90;;;;;;4993251;28;20104;-76
2023/07/10 00:53:51;;;;;;;22.45;12.45;;;18.00;99.90;;;;;;4985942;28;20050;-74
2023/07/10 00:56:19;;;;;;;24.85;12.68;;;18.00;99.90;;;;;;4992617;28;20080;-76
2023/07/10 00:58:49;;;;;;;21.85;14.68;;;18.00;99.90;;;;;;4991856;28;20096;-74
2023/07/10 01:01:20;;;;;;;24.52;16.13;;;18.00;99.90;;;;;;4991755;28;20048;-75
2023/07/10 01:03:50;;;;;;;24.90;17.05;;;18.10;99.90;;;;;;4986948;28;20042;-74
2023/07/10 01:06:22;;;;;;;25.92;18.08;;;18.20;99.90;;;;;;4989683;28;20054;-74
2023/07/10 01:08:57;;;;;;;23.48;18.30;;;18.20;99.90;;;;;;4988654;28;20755;-75
2023/07/10 01:11:24;;;;;;;29.70;19.10;;;18.20;99.90;;;;;;4989847;28;20058;-74
2023/07/10 01:13:53;;;;;;;29.15;20.88;;;18.30;99.90;;;;;;4973425;28;20104;-76
2023/07/10 01:16:21;;;;;;;30.13;20.75;;;18.40;99.90;;;;;;4991371;28;20512;-75
2023/07/10 01:18:49;;;;;;;28.27;19.20;;;18.50;99.90;;;;;;4992979;28;20100;-74
2023/07/10 01:21:31;;;;;;;27.63;17.85;;;18.50;99.90;;;;;;4991536;28;20109;-75
2023/07/10 01:24:01;;;;;;;22.02;16.58;;;18.60;99.90;;;;;;4989122;28;20104;-75
2023/07/10 01:26:30;;;;;;;23.80;16.13;;;18.60;99.90;;;;;;4991176;28;20484;-76
2023/07/10 01:28:58;;;;;;;27.08;19.02;;;18.60;99.90;;;;;;4981020;28;20056;-74
2023/07/10 01:31:28;;;;;;;29.67;19.88;;;18.70;99.90;;;;;;4973434;28;20058;-76
2023/07/10 01:33:59;;;;;;;37.15;23.60;;;18.80;99.90;;;;;;4987293;28;20049;-74
2023/07/10 01:36:31;;;;;;;40.65;24.98;;;18.80;99.90;;;;;;5008226;28;20053;-76
2023/07/10 01:39:10;;;;;;;42.75;27.67;;;18.90;99.90;;;;;;5005812;28;20061;-75
2023/07/10 01:41:39;;;;;;;46.17;26.65;;;19.00;99.90;;;;;;4986942;28;20644;-74
2023/07/10 01:44:29;;;;;;;67.75;33.17;;;19.10;99.90;;;;;;4991330;28;20127;-74
2023/07/10 01:46:57;;;;;;;94.78;40.67;;;19.10;99.90;;;;;;4987236;28;21602;-75
2023/07/10 01:49:49;;;;;;;71.70;38.42;;;19.10;99.90;;;;;;4989211;28;20472;-75
2023/07/10 01:52:18;;;;;;;85.93;39.35;;;19.10;99.90;;;;;;4989005;28;20145;-75
2023/07/10 01:54:45;;;;;;;91.63;43.00;;;19.30;99.90;;;;;;4984584;28;20209;-75
2023/07/10 01:57:14;;;;;;;112.07;46.13;;;19.30;99.90;;;;;;4985567;28;20049;-75
2023/07/10 01:59:41;;;;;;;102.10;48.60;;;19.40;99.90;;;;;;4987493;28;20042;-73
2023/07/10 02:02:08;;;;;;;103.03;44.55;;;19.50;99.90;;;;;;4992114;28;20049;-74
2023/07/10 02:04:35;;;;;;;105.13;50.20;;;19.50;99.90;;;;;;4984864;28;20140;-75
2023/07/10 02:07:03;;;;;;;110.35;50.35;;;19.50;99.90;;;;;;4991583;28;20073;-75
2023/07/10 02:09:31;;;;;;;107.40;51.53;;;19.50;99.90;;;;;;4974559;28;20046;-75
2023/07/10 02:11:59;;;;;;;114.90;52.75;;;19.50;99.90;;;;;;4987576;28;20566;-74
2023/07/10 02:14:26;;;;;;;112.38;53.70;;;19.50;99.90;;;;;;4988327;28;20043;-75
2023/07/10 02:16:53;;;;;;;127.03;55.03;;;19.50;99.90;;;;;;4990527;28;20583;-76
2023/07/10 02:19:20;;;;;;;114.47;55.53;;;19.50;99.90;;;;;;4993653;28;20090;-75
2023/07/10 02:21:47;;;;;;;123.07;55.85;;;19.50;99.90;;;;;;4989466;28;20080;-75
2023/07/10 02:24:15;;;;;;;109.07;55.45;;;19.50;99.90;;;;;;4988005;28;20493;-74
2023/07/10 02:26:42;;;;;;;119.72;57.40;;;19.50;99.90;;;;;;4984992;28;20058;-76
2023/07/10 02:29:09;;;;;;;118.35;56.70;;;19.50;99.90;;;;;;4989841;28;20046;-75
2023/07/10 02:31:36;;;;;;;120.13;60.40;;;19.50;99.90;;;;;;4989153;28;20046;-75
2023/07/10 02:34:03;;;;;;;119.70;59.05;;;19.50;99.90;;;;;;4986937;28;20068;-73
2023/07/10 02:36:30;;;;;;;120.70;59.88;;;19.50;99.90;;;;;;4990246;28;20144;-73
2023/07/10 02:38:57;;;;;;;140.07;62.85;;;19.60;99.90;;;;;;4992485;28;20050;-73
2023/07/10 02:41:24;;;;;;;139.23;64.95;;;19.50;99.90;;;;;;4989418;28;20110;-74
2023/07/10 02:43:50;;;;;;;128.85;64.10;;;19.50;99.90;;;;;;4984950;28;20043;-74
2023/07/10 02:46:17;;;;;;;138.80;64.07;;;19.50;99.90;;;;;;4987862;28;20041;-73
2023/07/10 02:48:44;;;;;;;146.95;67.07;;;19.50;99.90;;;;;;4984143;28;20146;-72
2023/07/10 02:51:12;;;;;;;139.05;66.60;;;19.50;99.90;;;;;;4991203;28;20578;-74
2023/07/10 02:53:40;;;;;;;146.82;69.20;;;19.60;99.90;;;;;;4993972;28;20049;-73
2023/07/10 02:56:06;;;;;;;134.32;67.43;;;19.50;99.90;;;;;;4989464;28;20547;-73
2023/07/10 02:58:34;;;;;;;143.05;68.15;;;19.50;99.90;;;;;;4988909;28;20669;-73
2023/07/10 03:01:02;;;;;;;126.32;65.03;;;19.50;99.90;;;;;;4981827;28;20054;-74
2023/07/10 03:03:29;;;;;;;130.32;61.75;;;19.40;99.90;;;;;;4967750;28;20096;-72
2023/07/10 03:06:01;;;;;;;114.20;59.90;;;19.40;99.90;;;;;;5000097;28;20058;-72
2023/07/10 03:08:29;;;;;;;108.22;57.63;;;19.30;99.90;;;;;;5005816;28;20049;-73
2023/07/10 03:11:05;;;;;;;108.25;59.20;;;19.40;99.90;;;;;;4997402;28;20126;-75
2023/07/10 03:13:32;;;;;;;105.15;60.25;;;19.50;99.90;;;;;;4993469;28;21464;-75
2023/07/10 03:16:01;;;;;;;101.90;57.25;;;19.50;99.90;;;;;;4986480;28;20061;-73
2023/07/10 03:18:30;;;;;;;113.22;60.30;;;19.50;99.90;;;;;;4987692;28;20099;-74
2023/07/10 03:20:58;;;;;;;112.95;58.75;;;19.50;99.90;;;;;;4987319;28;20049;-74
2023/07/10 03:23:25;;;;;;;120.22;60.75;;;19.60;99.90;;;;;;4991017;28;20042;-73
2023/07/10 03:25:52;;;;;;;112.45;62.97;;;19.50;99.90;;;;;;4989138;28;20111;-75
2023/07/10 03:28:18;;;;;;;121.72;64.70;;;19.60;99.90;;;;;;4989563;28;20055;-76
2023/07/10 03:30:46;;;;;;;128.18;69.00;;;19.60;99.90;;;;;;4993079;28;20074;-73
2023/07/10 03:33:14;;;;;;;129.32;66.68;;;19.60;99.90;;;;;;4990609;28;20038;-74
2023/07/10 03:35:42;;;;;;;117.75;65.80;;;19.50;99.90;;;;;;4990200;28;20042;-73
2023/07/10 03:38:09;;;;;;;113.72;63.35;;;19.40;99.90;;;;;;4971300;28;20041;-73
2023/07/10 03:40:36;;;;;;;115.32;63.63;;;19.50;99.90;;;;;;4993041;28;20053;-73
2023/07/10 03:43:02;;;;;;;110.35;63.60;;;19.40;99.90;;;;;;4988335;28;20128;-74
2023/07/10 03:45:31;;;;;;;100.07;57.28;;;19.30;99.90;;;;;;4991690;28;21532;-76
2023/07/10 03:47:58;;;;;;;90.43;55.92;;;19.30;99.90;;;;;;4983957;28;20053;-75
2023/07/10 03:50:24;;;;;;;92.20;56.65;;;19.30;99.90;;;;;;4990344;28;20652;-73
2023/07/10 03:52:51;;;;;;;89.43;58.42;;;19.20;99.90;;;;;;4981680;28;20038;-73
2023/07/10 03:55:18;;;;;;;96.32;57.95;;;19.30;99.90;;;;;;4989994;28;20581;-74
2023/07/10 03:57:45;;;;;;;89.00;55.25;;;19.20;99.90;;;;;;4988440;28;20066;-73
2023/07/10 04:00:12;;;;;;;84.75;50.00;;;19.20;99.90;;;;;;4981957;28;20045;-73
2023/07/10 04:02:38;;;;;;;82.78;50.75;;;19.10;99.90;;;;;;4990268;28;20046;-73
2023/07/10 04:05:05;;;;;;;94.32;54.97;;;19.10;99.90;;;;;;4985638;28;20038;-74
2023/07/10 04:07:33;;;;;;;91.38;53.60;;;19.10;99.90;;;;;;4988900;28;20129;-74
2023/07/10 04:09:59;;;;;;;94.47;53.92;;;19.10;99.90;;;;;;4986661;28;20124;-74
2023/07/10 04:12:26;;;;;;;96.22;56.38;;;19.10;99.90;;;;;;4989798;28;20145;-74
2023/07/10 04:14:54;;;;;;;106.43;59.83;;;19.10;99.90;;;;;;4986188;28;20081;-74
2023/07/10 04:17:21;;;;;;;96.55;54.95;;;19.10;99.90;;;;;;4986190;28;20050;-75
2023/07/10 04:19:48;;;;;;;90.85;52.85;;;19.10;99.90;;;;;;4983832;28;20034;-74
2023/07/10 04:22:15;;;;;;;100.43;53.60;;;19.00;99.90;;;;;;4985781;28;20664;-74
2023/07/10 04:24:42;;;;;;;95.10;53.90;;;18.90;99.90;;;;;;4989291;28;20050;-73
2023/07/10 04:27:08;;;;;;;82.13;49.80;;;18.90;99.90;;;;;;4985800;28;20545;-73
2023/07/10 04:29:36;;;;;;;88.28;48.55;;;18.90;99.90;;;;;;4986328;28;20723;-74
2023/07/10 04:32:03;;;;;;;85.38;53.25;;;18.90;99.90;;;;;;4984397;28;20129;-73
2023/07/10 04:34:29;;;;;;;83.03;51.13;;;18.80;99.90;;;;;;4991931;28;20078;-74
2023/07/10 04:36:56;;;;;;;79.32;49.55;;;18.80;99.90;;;;;;4982779;28;20045;-73
2023/07/10 04:39:23;;;;;;;79.35;48.38;;;18.70;99.90;;;;;;4987775;28;20480;-73
2023/07/10 04:41:49;;;;;;;77.00;49.08;;;18.70;99.90;;;;;;4969428;28;20138;-74
2023/07/10 04:44:18;;;;;;;84.72;50.15;;;18.80;99.90;;;;;;4987241;28;20073;-74
2023/07/10 04:46:45;;;;;;;91.40;53.38;;;18.80;99.90;;;;;;4991567;28;20088;-73
2023/07/10 04:49:12;;;;;;;86.85;52.58;;;18.70;99.90;;;;;;4984474;28;20398;-72
2023/07/10 04:51:38;;;;;;;86.15;55.33;;;18.80;99.90;;;;;;4994070;28;20065;-73
2023/07/10 04:54:05;;;;;;;85.93;53.05;;;18.70;99.90;;;;;;4987311;28;20488;-72
2023/07/10 04:56:32;;;;;;;81.53;51.55;;;18.80;99.90;;;;;;4987362;28;20130;-74
2023/07/10 04:58:59;;;;;;;68.47;46.65;;;18.70;99.90;;;;;;4983681;28;20053;-76
2023/07/10 05:01:28;;;;;;;74.75;46.33;;;18.70;99.90;;;;;;4973485;28;20128;-73
2023/07/10 05:03:56;;;;;;;78.50;45.17;;;18.70;99.90;;;;;;4984222;28;20760;-72
2023/07/10 05:06:23;;;;;;;65.05;43.72;;;18.60;99.90;;;;;;4996282;28;20049;-74
2023/07/10 05:08:54;;;;;;;69.30;44.30;;;18.70;99.90;;;;;;4974670;28;20110;-74
2023/07/10 05:11:25;;;;;;;74.70;48.45;;;18.70;99.90;;;;;;4986196;28;20043;-72
2023/07/10 05:13:52;;;;;;;87.38;53.22;;;18.70;99.90;;;;;;4990199;28;20046;-74
2023/07/10 05:16:19;;;;;;;91.57;50.33;;;18.70;99.90;;;;;;4991141;28;20455;-72
2023/07/10 05:18:46;;;;;;;100.97;55.38;;;18.60;99.90;;;;;;4989995;28;20066;-73
2023/07/10 05:21:13;;;;;;;99.22;54.38;;;18.60;99.90;;;;;;4983242;28;20644;-72
2023/07/10 05:23:39;;;;;;;106.18;56.97;;;18.70;99.90;;;;;;4990558;28;20081;-72
2023/07/10 05:26:15;;;;;;;108.97;60.78;;;18.60;99.90;;;;;;4979629;28;20185;-73
2023/07/10 05:28:42;;;;;;;106.35;58.95;;;18.70;99.90;;;;;;4986805;28;20038;-73
2023/07/10 05:31:11;;;;;;;104.50;57.70;;;18.60;99.90;;;;;;4988905;28;20126;-73
2023/07/10 05:33:38;;;;;;;100.07;56.35;;;18.70;99.90;;;;;;4984884;28;20056;-74
2023/07/10 05:36:10;;;;;;;95.78;58.30;;;18.70;99.90;;;;;;4983297;28;20081;-73
2023/07/10 05:38:38;;;;;;;96.65;55.17;;;18.70;99.90;;;;;;4989222;28;20548;-74
2023/07/10 05:41:06;;;;;;;89.97;54.35;;;18.60;99.90;;;;;;4988860;28;20034;-74
2023/07/10 05:43:34;;;;;;;93.15;52.72;;;18.60;99.90;;;;;;4990656;28;20030;-73
2023/07/10 05:46:02;;;;;;;84.07;50.70;;;18.60;99.90;;;;;;4988627;28;20090;-73
2023/07/10 05:48:30;;;;;;;88.82;52.47;;;18.50;99.90;;;;;;4989926;28;20088;-72
2023/07/10 05:50:58;;;;;;;87.10;54.28;;;18.50;99.90;;;;;;4986730;28;20065;-74
2023/07/10 05:53:25;;;;;;;90.18;53.60;;;18.50;99.90;;;;;;4991145;28;20034;-74
2023/07/10 05:55:54;;;;;;;90.88;54.25;;;18.40;99.90;;;;;;4990278;28;20108;-72
2023/07/10 05:58:24;;;;;;;84.15;53.35;;;18.50;99.90;;;;;;4990616;28;20141;-72
2023/07/10 06:00:56;;;;;;;97.25;55.53;;;18.50;99.90;;;;;;4987391;28;20041;-74
2023/07/10 06:03:24;;;;;;;84.45;53.88;;;18.40;99.90;;;;;;4986915;28;20058;-73
2023/07/10 06:05:59;;;;;;;89.60;54.35;;;18.50;99.90;;;;;;4989883;28;20042;-73
2023/07/10 06:08:27;;;;;;;93.15;53.53;;;18.40;99.90;;;;;;4995089;28;20069;-74
2023/07/10 06:10:53;;;;;;;86.43;52.58;;;18.30;99.90;;;;;;4990098;28;20116;-74
2023/07/10 06:13:20;;;;;;;96.47;54.63;;;18.30;99.90;;;;;;4991760;28;20038;-73
2023/07/10 06:15:50;;;;;;;95.90;53.08;;;18.30;99.90;;;;;;4995885;28;20081;-74
2023/07/10 06:18:18;;;;;;;96.43;54.88;;;18.30;99.90;;;;;;4988863;28;20116;-74
2023/07/10 06:20:57;;;;;;;83.15;49.53;;;18.30;99.90;;;;;;4990399;28;20053;-72
2023/07/10 06:23:27;;;;;;;71.80;43.85;;;18.20;99.90;;;;;;4995816;28;20046;-76
2023/07/10 06:25:55;;;;;;;80.18;47.70;;;18.20;99.90;;;;;;4993192;28;20467;-72
2023/07/10 06:28:22;;;;;;;87.30;49.38;;;18.20;99.90;;;;;;4991130;28;20058;-75
2023/07/10 06:30:58;;;;;;;95.32;51.22;;;18.20;99.90;;;;;;4988949;28;20038;-71
2023/07/10 06:33:27;;;;;;;93.10;49.47;;;18.20;99.90;;;;;;4991851;28;20056;-72
2023/07/10 06:35:53;;;;;;;99.53;50.72;;;18.20;99.90;;;;;;4991497;28;20085;-72
2023/07/10 06:38:21;;;;;;;91.20;51.70;;;18.30;99.90;;;;;;4990653;28;20073;-73
2023/07/10 06:40:49;;;;;;;95.60;49.92;;;18.30;99.90;;;;;;4990911;28;20051;-73
2023/07/10 06:43:17;;;;;;;100.10;50.95;;;18.30;99.90;;;;;;4994918;28;20353;-73
2023/07/10 06:45:45;;;;;;;88.35;46.22;;;18.20;99.90;;;;;;4993469;28;20566;-74
2023/07/10 06:48:12;;;;;;;85.18;46.92;;;18.20;99.90;;;;;;4995595;28;20046;-74
2023/07/10 06:50:39;;;;;;;91.53;46.78;;;18.10;99.90;;;;;;4999548;28;20041;-74
2023/07/10 06:53:06;;;;;;;87.05;46.42;;;18.20;99.90;;;;;;4988247;28;20112;-75
2023/07/10 06:56:01;;;;;;;77.20;42.28;;;18.20;99.90;;;;;;4992135;28;20065;-74
2023/07/10 06:58:31;;;;;;;72.47;42.97;;;18.10;99.90;;;;;;4991677;28;20791;-74
2023/07/10 07:00:59;;;;;;;65.55;38.90;;;18.20;99.90;;;;;;4987880;28;20052;-73
2023/07/10 07:03:27;;;;;;;57.55;36.33;;;18.30;99.90;;;;;;4989101;28;20057;-72
2023/07/10 07:05:54;;;;;;;60.33;35.95;;;18.30;99.90;;;;;;4991288;28;20052;-74
2023/07/10 07:08:22;;;;;;;57.10;36.25;;;18.30;99.90;;;;;;4989407;28;20093;-74
2023/07/10 07:10:51;;;;;;;60.30;35.60;;;18.40;99.90;;;;;;4994380;28;20045;-75
2023/07/10 07:13:19;;;;;;;58.92;36.28;;;18.30;99.90;;;;;;5003049;28;20795;-73
2023/07/10 07:15:49;;;;;;;53.78;36.22;;;18.30;99.90;;;;;;5011421;28;20069;-73
2023/07/10 07:18:16;;;;;;;56.28;35.60;;;18.30;99.90;;;;;;5018777;28;20042;-72
2023/07/10 07:20:43;;;;;;;54.00;33.38;;;18.30;99.90;;;;;;5005863;28;20042;-73
2023/07/10 07:23:10;;;;;;;63.95;36.42;;;18.20;99.90;;;;;;4989278;28;20046;-72
2023/07/10 07:25:39;;;;;;;65.85;39.13;;;18.30;99.90;;;;;;4994638;28;20045;-73
2023/07/10 07:28:06;;;;;;;67.35;40.03;;;18.30;99.90;;;;;;4979841;28;20137;-75
2023/07/10 07:30:32;;;;;;;68.72;39.47;;;18.20;99.90;;;;;;4985907;28;20102;-73
2023/07/10 07:33:01;;;;;;;76.80;41.47;;;18.30;99.90;;;;;;4988004;28;20058;-73
2023/07/10 07:35:28;;;;;;;83.20;42.25;;;18.20;99.90;;;;;;4985621;28;20064;-74
2023/07/10 07:37:55;;;;;;;73.68;39.00;;;18.20;99.90;;;;;;4992047;28;20528;-74
2023/07/10 07:40:22;;;;;;;91.20;46.03;;;18.20;99.90;;;;;;4990636;28;20053;-74
2023/07/10 07:42:48;;;;;;;84.78;43.25;;;18.10;99.90;;;;;;4987545;28;21122;-73
2023/07/10 07:45:16;;;;;;;68.88;36.70;;;18.10;99.90;;;;;;4999324;28;20050;-72
2023/07/10 07:47:43;;;;;;;67.07;37.22;;;18.10;99.90;;;;;;4984970;28;20053;-72
2023/07/10 07:50:11;;;;;;;60.05;36.05;;;18.10;99.90;;;;;;4983219;28;20050;-72
2023/07/10 07:52:38;;;;;;;60.42;34.55;;;18.10;99.90;;;;;;4987915;28;20130;-73
2023/07/10 07:55:05;;;;;;;62.90;37.10;;;18.10;99.90;;;;;;4984244;28;20703;-73
2023/07/10 07:57:32;;;;;;;63.67;37.22;;;18.10;99.90;;;;;;4986019;28;20514;-74
2023/07/10 07:59:59;;;;;;;59.88;34.38;;;18.20;99.90;;;;;;4987864;28;20050;-73
2023/07/10 08:02:26;;;;;;;60.25;33.10;;;18.30;99.90;;;;;;4987116;28;20077;-73
2023/07/10 08:04:54;;;;;;;68.60;36.33;;;18.20;99.90;;;;;;4987267;28;20057;-74
2023/07/10 08:07:21;;;;;;;69.82;37.28;;;18.10;99.90;;;;;;4988512;28;20042;-74
2023/07/10 08:09:48;;;;;;;68.45;36.65;;;18.00;99.90;;;;;;4984514;28;20046;-74
2023/07/10 08:12:14;;;;;;;69.68;37.38;;;18.00;99.90;;;;;;4984612;28;20192;-74
2023/07/10 08:14:41;;;;;;;63.38;36.85;;;18.00;99.90;;;;;;4986632;28;20070;-74
2023/07/10 08:17:08;;;;;;;59.70;37.58;;;18.10;99.90;;;;;;4978631;28;20113;-72
2023/07/10 08:19:35;;;;;;;62.58;37.70;;;18.10;99.90;;;;;;4984268;28;20547;-75
2023/07/10 08:22:01;;;;;;;70.18;38.90;;;18.10;99.90;;;;;;4987785;28;20134;-74
2023/07/10 08:24:28;;;;;;;70.07;37.53;;;18.10;99.90;;;;;;4983699;28;20049;-73
2023/07/10 08:26:56;;;;;;;63.72;37.53;;;18.00;99.90;;;;;;4983838;28;20049;-72
2023/07/10 08:29:34;;;;;;;66.93;36.50;;;17.90;99.90;;;;;;4987170;28;20048;-75
2023/07/10 08:32:01;;;;;;;56.85;32.28;;;17.90;99.90;;;;;;4982336;28;20118;-72
2023/07/10 08:34:29;;;;;;;51.28;31.20;;;17.80;99.90;;;;;;4984963;28;20042;-73
2023/07/10 08:36:58;;;;;;;51.15;33.00;;;17.80;99.90;;;;;;4984356;28;20065;-73
2023/07/10 08:39:26;;;;;;;41.30;25.80;;;17.90;99.90;;;;;;4988543;28;20052;-74
2023/07/10 08:41:56;;;;;;;50.33;28.15;;;17.80;99.90;;;;;;4988987;28;20053;-73
2023/07/10 08:44:30;;;;;;;44.88;28.92;;;17.80;99.90;;;;;;4990639;28;20070;-74
2023/07/10 08:46:59;;;;;;;41.63;25.90;;;17.90;99.90;;;;;;4990165;28;20046;-74
2023/07/10 08:49:30;;;;;;;41.65;26.05;;;18.10;99.90;;;;;;4990209;28;20104;-73
2023/07/10 08:52:10;;;;;;;35.30;23.67;;;18.20;99.90;;;;;;4989549;28;20518;-72
2023/07/10 08:54:37;;;;;;;39.20;24.08;;;18.50;99.90;;;;;;4989871;28;20053;-72
2023/07/10 08:57:19;;;;;;;34.03;24.83;;;18.50;99.90;;;;;;4987352;28;20100;-72
2023/07/10 09:00:09;;;;;;;32.35;22.45;;;18.80;99.90;;;;;;4990439;28;20052;-72
2023/07/10 09:02:49;;;;;;;30.08;24.00;;;19.20;99.90;;;;;;4987099;28;20084;-73
2023/07/10 09:05:29;;;;;;;27.05;20.75;;;19.60;99.90;;;;;;4988933;28;20065;-71
2023/07/10 09:08:02;;;;;;;23.38;18.50;;;20.00;99.90;;;;;;4992355;28;20037;-73
2023/07/10 09:10:43;;;;;;;22.27;19.17;;;20.10;99.90;;;;;;4992246;28;20050;-73
2023/07/10 09:13:23;;;;;;;23.30;20.90;;;20.30;99.90;;;;;;4991140;28;20065;-71
2023/07/10 09:15:56;;;;;;;23.73;19.00;;;20.20;99.90;;;;;;4989559;28;20581;-72
2023/07/10 09:19:03;;;;;;;22.92;20.52;;;20.20;99.90;;;;;;4988406;28;21257;-72
2023/07/10 09:21:36;;;;;;;21.90;19.88;;;20.20;99.90;;;;;;4990660;28;20112;-72
2023/07/10 09:24:04;;;;;;;25.50;21.88;;;20.40;99.90;;;;;;4993525;28;20072;-71
2023/07/10 09:26:38;;;;;;;24.42;22.13;;;20.40;99.90;;;;;;4990106;28;20046;-72
2023/07/10 09:29:11;;;;;;;24.95;22.42;;;20.40;99.90;;;;;;4987609;28;20074;-71
2023/07/10 09:32:02;;;;;;;24.67;22.40;;;20.30;99.90;;;;;;4987578;28;20042;-73
2023/07/10 09:34:31;;;;;;;23.83;21.73;;;20.10;99.90;;;;;;4991075;28;20642;-73
2023/07/10 09:36:59;;;;;;;25.08;22.80;;;20.20;99.90;;;;;;4984013;28;20074;-71
2023/07/10 09:39:31;;;;;;;25.27;23.05;;;20.40;99.90;;;;;;4972886;28;20111;-72
2023/07/10 09:42:00;;;;;;;26.92;23.00;;;20.30;99.90;;;;;;4986723;28;20042;-72
2023/07/10 09:44:35;;;;;;;26.20;23.80;;;20.40;99.90;;;;;;4985761;28;20077;-72
2023/07/10 09:47:11;;;;;;;25.85;23.35;;;20.40;99.90;;;;;;4990716;28;20046;-73
2023/07/10 09:49:51;;;;;;;25.35;22.88;;;20.30;99.90;;;;;;4985624;28;20053;-71
2023/07/10 09:52:31;;;;;;;25.60;23.58;;;20.30;99.90;;;;;;4986957;28;20596;-71
2023/07/10 09:55:15;;;;;;;26.33;24.05;;;20.30;99.90;;;;;;4992096;28;20512;-71
2023/07/10 09:58:00;;;;;;;27.27;24.42;;;20.20;99.90;;;;;;4987152;28;20061;-72
2023/07/10 10:00:29;;;;;;;26.05;23.63;;;20.30;99.90;;;;;;4986025;28;20149;-72
2023/07/10 10:03:09;;;;;;;26.25;23.75;;;20.50;99.90;;;;;;4991251;28;20049;-73
2023/07/10 10:05:41;;;;;;;27.45;24.80;;;20.70;99.90;;;;;;4992569;28;20034;-72
2023/07/10 10:08:23;;;;;;;26.02;24.00;;;21.00;99.90;;;;;;4988196;28;20074;-72
2023/07/10 10:11:09;;;;;;;28.08;25.67;;;21.40;99.90;;;;;;4990733;28;20092;-72
2023/07/10 10:13:45;;;;;;;27.77;25.15;;;21.40;99.90;;;;;;4987108;28;20101;-72
2023/07/10 10:16:34;;;;;;;25.92;23.77;;;21.20;99.90;;;;;;4991782;28;20129;-72
2023/07/10 10:19:22;;;;;;;27.55;25.38;;;21.30;99.90;;;;;;4987297;28;20065;-73
2023/07/10 10:21:49;;;;;;;26.27;24.45;;;21.60;99.90;;;;;;4991011;28;20049;-73
2023/07/10 10:24:17;;;;;;;25.35;23.45;;;22.00;99.90;;;;;;4987743;28;20133;-72
2023/07/10 10:26:51;;;;;;;28.65;26.52;;;22.20;99.90;;;;;;4984283;28;20096;-72
2023/07/10 10:29:46;;;;;;;27.55;25.58;;;22.30;99.90;;;;;;4984241;28;20061;-72
2023/07/10 10:32:40;;;;;;;27.47;25.63;;;22.30;99.90;;;;;;4986452;28;20647;-71
2023/07/10 10:35:20;;;;;;;26.92;25.13;;;22.50;99.90;;;;;;4985944;28;20120;-71
2023/07/10 10:38:12;;;;;;;27.08;25.17;;;22.80;99.90;;;;;;4989657;28;20787;-71
2023/07/10 10:41:05;;;;;;;26.63;24.83;;;22.70;99.90;;;;;;4990448;28;20053;-72
2023/07/10 10:43:32;;;;;;;26.38;24.50;;;22.60;99.90;;;;;;4988562;28;20075;-72
2023/07/10 10:45:58;;;;;;;26.15;24.25;;;22.60;99.90;;;;;;4987672;28;20591;-71
2023/07/10 10:48:44;;;;;;;25.20;23.65;;;22.70;99.90;;;;;;4985509;28;20046;-72
2023/07/10 10:51:36;;;;;;;26.27;24.45;;;22.80;99.90;;;;;;4981956;28;20050;-73
2023/07/10 10:54:03;;;;;;;25.55;23.80;;;23.00;99.90;;;;;;4991132;28;20073;-72
2023/07/10 10:57:06;;;;;;;24.75;23.05;;;23.40;99.90;;;;;;4982795;28;20077;-71
2023/07/10 11:00:16;;;;;;;24.90;23.33;;;23.20;99.90;;;;;;4988752;28;20064;-72
2023/07/10 11:03:04;;;;;;;26.63;24.73;;;23.20;99.90;;;;;;4985192;28;20038;-72
2023/07/10 11:05:39;;;;;;;25.85;23.83;;;23.10;99.90;;;;;;4984419;28;20655;-72
2023/07/10 11:08:15;;;;;;;25.05;23.25;;;23.30;99.90;;;;;;4985844;28;20045;-72
2023/07/10 11:10:44;;;;;;;26.38;24.33;;;23.20;99.90;;;;;;4979619;28;20365;-72
2023/07/10 11:13:39;;;;;;;27.38;25.40;;;23.00;99.90;;;;;;4986771;28;20085;-72
2023/07/10 11:16:07;;;;;;;26.73;24.73;;;23.00;99.90;;;;;;4984846;28;20117;-72
2023/07/10 11:18:35;;;;;;;26.52;24.60;;;22.90;99.90;;;;;;4986277;28;20054;-72
2023/07/10 11:21:02;;;;;;;26.83;24.88;;;22.80;99.90;;;;;;4982413;28;20137;-72
2023/07/10 11:23:41;;;;;;;26.38;24.40;;;22.70;99.90;;;;;;4986530;28;20125;-72
2023/07/10 11:26:12;;;;;;;27.23;25.33;;;22.60;99.90;;;;;;4985501;28;20050;-73
2023/07/10 11:28:50;;;;;;;27.08;25.08;;;22.70;99.90;;;;;;4977609;28;20077;-72
2023/07/10 11:31:33;;;;;;;29.08;27.25;;;22.70;99.90;;;;;;4981990;28;20046;-71
2023/07/10 11:34:06;;;;;;;28.25;26.45;;;23.10;99.90;;;;;;4984319;28;20046;-72
2023/07/10 11:36:33;;;;;;;27.85;25.75;;;23.30;99.90;;;;;;4984874;28;20123;-72
2023/07/10 11:39:06;;;;;;;25.55;23.85;;;23.90;99.90;;;;;;4999220;28;20102;-70
2023/07/10 11:41:43;;;;;;;26.33;24.33;;;24.50;99.90;;;;;;4999024;28;20050;-70
2023/07/10 11:44:20;;;;;;;25.10;23.38;;;24.40;99.90;;;;;;5014486;28;20065;-71
2023/07/10 11:46:56;;;;;;;29.42;27.38;;;24.20;99.90;;;;;;4987372;28;20521;-71
2023/07/10 11:49:25;;;;;;;24.98;23.10;;;24.10;99.90;;;;;;5005221;28;20046;-71
2023/07/10 11:52:25;;;;;;;25.80;23.83;;;24.20;99.90;;;;;;4996024;28;20132;-70
2023/07/10 11:54:52;;;;;;;25.13;23.42;;;23.70;99.90;;;;;;4978366;28;20076;-71
2023/07/10 11:57:23;;;;;;;26.38;24.30;;;23.60;99.90;;;;;;4987269;28;20102;-72
2023/07/10 12:00:23;;;;;;;25.67;23.80;;;23.60;99.90;;;;;;4991592;28;20042;-71
2023/07/10 12:02:52;;;;;;;26.75;24.85;;;23.60;99.90;;;;;;4970739;28;20043;-72
2023/07/10 12:05:37;;;;;;;28.20;26.20;;;23.70;99.90;;;;;;4969780;28;20985;-72
2023/07/10 12:08:11;;;;;;;28.17;26.08;;;23.70;99.90;;;;;;4985680;28;20052;-70
2023/07/10 12:10:45;;;;;;;27.75;25.95;;;24.00;99.90;;;;;;4983938;28;20108;-71
2023/07/10 12:13:27;;;;;;;27.02;25.08;;;24.30;99.90;;;;;;4990676;28;20712;-71
2023/07/10 12:15:57;;;;;;;26.52;24.42;;;24.60;99.90;;;;;;4992868;28;20045;-71
2023/07/10 12:18:31;;;;;;;26.80;24.67;;;24.90;99.90;;;;;;4994208;28;20042;-71
2023/07/10 12:21:01;;;;;;;26.50;24.67;;;25.00;99.90;;;;;;4989227;28;20172;-71
2023/07/10 12:23:28;;;;;;;26.23;24.42;;;25.20;99.90;;;;;;4986500;28;20396;-70
2023/07/10 12:25:57;;;;;;;25.67;23.88;;;25.10;99.90;;;;;;4990383;28;20609;-69
2023/07/10 12:28:26;;;;;;;24.63;22.98;;;25.20;99.90;;;;;;4987281;28;20045;-71
2023/07/10 12:30:58;;;;;;;24.83;23.02;;;25.50;99.90;;;;;;4989923;28;20144;-71
2023/07/10 12:33:32;;;;;;;25.83;23.83;;;25.50;99.90;;;;;;4988793;28;20068;-71
2023/07/10 12:36:11;;;;;;;26.85;25.02;;;25.20;99.90;;;;;;4990883;28;20045;-70
2023/07/10 12:38:39;;;;;;;27.40;25.70;;;24.70;99.90;;;;;;4986619;28;20070;-72
2023/07/10 12:41:07;;;;;;;26.95;25.10;;;24.60;99.90;;;;;;4992483;28;20046;-73
2023/07/10 12:43:34;;;;;;;27.40;25.35;;;24.90;99.90;;;;;;4989159;28;20050;-70
2023/07/10 12:46:11;;;;;;;27.50;25.60;;;25.20;99.90;;;;;;4989389;28;20459;-70